Time;durP1;ratioP1;P1;durP2;ratioP2;P2;SDS_P1;SDS_P2;PMS_P1;PMS_P2;Temp;Humidity;BMP_temperature;BMP_pressure;BME280_temperature;BME280_humidity;BME280_pressure;Samples;Min_cycle;Max_cycle;Signal;HPM_P1;HPM_P2
2022/08/15 00:00:31;;;;;;;12.20;8.93;;;;;;;23.87;60.10;99970.28;5018332;28;20507;-60
2022/08/15 00:03:02;;;;;;;10.38;8.43;;;;;;;23.85;60.27;99963.44;5024378;28;20053;-59
2022/08/15 00:05:37;;;;;;;11.45;9.00;;;;;;;23.80;60.60;99965.88;5022906;28;20060;-61
2022/08/15 00:08:07;;;;;;;14.60;8.48;;;;;;;23.78;60.48;99967.94;5023429;28;20401;-60
2022/08/15 00:10:58;;;;;;;12.20;9.52;;;;;;;23.73;61.65;99974.72;5028424;28;20485;-59
2022/08/15 00:13:53;;;;;;;11.20;9.05;;;;;;;23.65;61.34;99964.06;5017676;28;20068;-60
2022/08/15 00:16:32;;;;;;;10.35;8.75;;;;;;;23.62;61.47;99964.41;5024760;28;20382;-60
2022/08/15 00:19:02;;;;;;;12.80;9.15;;;;;;;23.59;62.26;99959.41;5025548;28;20064;-60
2022/08/15 00:21:32;;;;;;;9.50;8.07;;;;;;;23.56;61.81;99959.00;5017030;28;20077;-59
2022/08/15 00:23:59;;;;;;;11.75;8.98;;;;;;;23.53;62.19;99967.41;5015995;28;20054;-60
2022/08/15 00:26:27;;;;;;;13.45;9.55;;;;;;;23.48;62.30;99960.75;5018621;28;20045;-59
2022/08/15 00:29:16;;;;;;;11.95;8.98;;;;;;;23.46;62.40;99961.97;5024117;22;20423;-78
2022/08/15 00:31:43;;;;;;;11.18;9.20;;;;;;;23.43;62.62;99967.72;5014936;28;20057;-78
2022/08/15 00:34:13;;;;;;;11.23;9.30;;;;;;;23.39;62.89;99969.97;5001881;28;20050;-79
2022/08/15 00:37:00;;;;;;;14.80;9.10;;;;;;;23.37;63.19;99966.66;4991570;28;20072;-78
2022/08/15 00:39:32;;;;;;;11.60;9.77;;;;;;;23.35;62.95;99965.16;5005839;28;20133;-78
2022/08/15 00:42:08;;;;;;;13.40;9.82;;;;;;;23.31;63.70;99966.56;4994780;28;20050;-78
2022/08/15 00:44:46;;;;;;;13.25;9.68;;;;;;;23.28;63.92;99966.91;4997416;28;20073;-78
2022/08/15 00:47:21;;;;;;;13.43;10.20;;;;;;;23.23;64.60;99967.47;5011517;28;20038;-77
2022/08/15 00:49:48;;;;;;;10.45;9.15;;;;;;;23.16;64.40;99963.91;4977150;28;20053;-78
2022/08/15 00:52:31;;;;;;;12.85;10.13;;;;;;;23.16;65.79;99961.22;5003217;28;20052;-77
2022/08/15 00:55:18;;;;;;;12.98;10.52;;;;;;;23.13;64.22;99965.09;4982379;28;20427;-78
2022/08/15 00:57:48;;;;;;;17.02;11.00;;;;;;;23.13;64.65;99980.38;5012144;28;20050;-78
2022/08/15 01:00:33;;;;;;;10.18;9.25;;;;;;;23.09;65.50;99973.72;4993573;28;20512;-78
2022/08/15 01:03:10;;;;;;;10.50;8.77;;;;;;;23.07;65.54;99960.50;4995110;28;20056;-78
2022/08/15 01:05:43;;;;;;;21.70;11.07;;;;;;;23.03;65.31;99953.84;5009323;28;20121;-78
2022/08/15 01:08:16;;;;;;;15.57;10.00;;;;;;;22.97;65.77;99947.38;4997262;28;20046;-77
2022/08/15 01:10:47;;;;;;;11.25;9.40;;;;;;;22.95;66.21;99953.94;5016663;28;20423;-77
2022/08/15 01:13:30;;;;;;;12.20;10.25;;;;;;;22.92;66.60;99956.97;4993798;28;20050;-77
2022/08/15 01:16:19;;;;;;;14.60;9.65;;;;;;;22.92;66.92;99952.47;5008251;28;20127;-78
2022/08/15 01:19:23;;;;;;;11.93;8.95;;;;;;;22.90;67.09;99951.81;4996402;28;20060;-78
2022/08/15 01:22:14;;;;;;;16.95;10.40;;;;;;;22.85;68.22;99951.50;4989309;28;20062;-78
2022/08/15 01:25:26;;;;;;;14.93;9.43;;;;;;;22.80;67.66;99945.88;5013072;28;20042;-77
2022/08/15 01:28:27;;;;;;;13.13;10.80;;;;;;;22.74;68.50;99947.44;5030791;28;20052;-77
2022/08/15 01:31:01;;;;;;;13.80;10.60;;;;;;;22.73;68.56;99944.94;5007694;28;20053;-78
2022/08/15 01:33:33;;;;;;;12.93;10.77;;;;;;;22.69;69.34;99947.16;4982361;28;20061;-78
2022/08/15 01:36:03;;;;;;;13.32;10.68;;;;;;;22.64;69.49;99946.03;4981807;28;20056;-78
2022/08/15 01:39:09;;;;;;;15.07;11.13;;;;;;;22.59;69.35;99948.47;5004027;28;20050;-77
2022/08/15 01:41:46;;;;;;;13.52;11.32;;;;;;;22.56;70.24;99946.13;4998718;28;20055;-78
2022/08/15 01:44:28;;;;;;;11.52;10.30;;;;;;;22.52;70.83;99948.38;5014527;28;20042;-78
2022/08/15 01:47:12;;;;;;;12.50;10.23;;;;;;;22.49;70.29;99943.38;5007527;28;20129;-78
2022/08/15 01:49:45;;;;;;;13.07;11.00;;;;;;;22.46;70.21;99943.72;5010096;28;20096;-79
2022/08/15 01:52:31;;;;;;;13.52;11.68;;;;;;;22.44;70.51;99941.25;5003736;28;20056;-77
2022/08/15 01:55:22;;;;;;;13.57;10.43;;;;;;;22.42;71.34;99943.25;4984936;28;20060;-77
2022/08/15 01:57:49;;;;;;;12.48;10.25;;;;;;;22.39;71.88;99943.63;5001065;28;20117;-77
2022/08/15 02:00:20;;;;;;;12.80;11.23;;;;;;;22.36;71.94;99945.84;5022829;28;20058;-78
2022/08/15 02:02:53;;;;;;;12.50;11.30;;;;;;;22.34;72.34;99953.25;4998369;28;20496;-77
2022/08/15 02:05:20;;;;;;;12.60;10.50;;;;;;;22.30;72.59;99951.97;5015373;28;20277;-77
2022/08/15 02:07:48;;;;;;;14.57;11.75;;;;;;;22.26;72.93;99951.47;4986619;28;20046;-78
2022/08/15 02:10:36;;;;;;;11.95;10.85;;;;;;;22.21;73.58;99945.84;4974854;28;20156;-77
2022/08/15 02:13:05;;;;;;;15.40;11.18;;;;;;;22.17;73.54;99949.91;4981421;28;20575;-78
2022/08/15 02:15:42;;;;;;;17.98;11.45;;;;;;;22.16;73.13;99951.75;4993336;28;20411;-78
2022/08/15 02:18:11;;;;;;;12.23;10.93;;;;;;;22.13;73.95;99951.28;4980459;28;20046;-77
2022/08/15 02:20:47;;;;;;;16.27;10.75;;;;;;;22.10;73.92;99939.03;4962157;28;20149;-78
2022/08/15 02:23:17;;;;;;;13.55;11.65;;;;;;;22.06;74.95;99943.06;4963347;28;20039;-78
2022/08/15 02:25:47;;;;;;;15.02;11.38;;;;;;;22.02;74.98;99943.63;4992957;28;20050;-78
2022/08/15 02:28:15;;;;;;;12.88;10.82;;;;;;;21.99;75.53;99934.94;4980781;28;20125;-78
2022/08/15 02:31:10;;;;;;;15.50;11.93;;;;;;;21.93;75.49;99930.31;4991477;28;20412;-78
2022/08/15 02:33:39;;;;;;;15.95;12.57;;;;;;;21.91;75.97;99926.13;4990008;28;20053;-78
2022/08/15 02:36:13;;;;;;;13.10;11.55;;;;;;;21.89;75.60;99922.81;5006370;28;20086;-76
2022/08/15 02:38:59;;;;;;;14.02;11.35;;;;;;;21.87;75.96;99917.63;4996076;28;20056;-77
2022/08/15 02:41:31;;;;;;;15.00;11.85;;;;;;;21.83;76.25;99923.53;4976704;28;20050;-77
2022/08/15 02:44:11;;;;;;;15.13;12.13;;;;;;;21.82;77.16;99929.91;4966702;28;20055;-78
2022/08/15 02:46:45;;;;;;;14.00;12.55;;;;;;;21.79;76.38;99932.94;5001132;28;20058;-78
2022/08/15 02:49:31;;;;;;;17.90;12.48;;;;;;;21.77;76.90;99930.44;4979280;28;20412;-79
2022/08/15 02:52:14;;;;;;;12.65;11.35;;;;;;;21.75;77.08;99929.78;4981355;28;20278;-79
2022/08/15 02:54:49;;;;;;;16.75;11.98;;;;;;;21.72;76.64;99938.19;4967850;28;20081;-77
2022/08/15 02:57:29;;;;;;;14.75;11.45;;;;;;;21.71;76.42;99928.50;4988669;28;20121;-77
2022/08/15 02:59:56;;;;;;;14.02;11.35;;;;;;;21.69;76.33;99925.13;4981374;28;20050;-77
2022/08/15 03:02:25;;;;;;;17.02;12.23;;;;;;;21.67;77.15;99932.53;5000432;28;20037;-79
2022/08/15 03:04:59;;;;;;;14.45;12.95;;;;;;;21.63;77.05;99924.00;4977597;28;20066;-78
2022/08/15 03:07:27;;;;;;;14.25;12.57;;;;;;;21.60;77.60;99919.00;4978814;28;20052;-79
2022/08/15 03:09:55;;;;;;;13.10;11.85;;;;;;;21.57;77.53;99914.03;4958362;28;20059;-78
2022/08/15 03:12:25;;;;;;;13.75;11.65;;;;;;;21.55;78.18;99915.22;4965473;28;20049;-77
2022/08/15 03:15:03;;;;;;;15.23;12.40;;;;;;;21.53;78.82;99914.56;4980257;28;20057;-77
2022/08/15 03:17:30;;;;;;;14.90;13.02;;;;;;;21.50;78.67;99913.06;4977150;28;20142;-79
2022/08/15 03:20:04;;;;;;;13.70;12.27;;;;;;;21.47;79.27;99914.25;4994625;28;20295;-77
2022/08/15 03:22:45;;;;;;;18.98;13.40;;;;;;;21.45;79.09;99915.44;4978430;28;20046;-77
2022/08/15 03:25:15;;;;;;;15.57;12.80;;;;;;;21.40;80.19;99907.94;4993326;28;20497;-78
2022/08/15 03:27:44;;;;;;;19.08;13.13;;;;;;;21.39;79.89;99900.06;4992842;28;20138;-78
2022/08/15 03:30:13;;;;;;;14.68;13.15;;;;;;;21.40;80.20;99896.41;4993422;28;20070;-78
2022/08/15 03:32:52;;;;;;;16.83;12.88;;;;;;;21.37;79.96;99888.72;4962992;28;20053;-78
2022/08/15 03:35:22;;;;;;;15.35;13.90;;;;;;;21.35;80.46;99888.91;4990857;28;20301;-77
2022/08/15 03:37:56;;;;;;;15.95;13.30;;;;;;;21.33;80.25;99888.25;4993118;28;20416;-78
2022/08/15 03:40:28;;;;;;;15.30;13.30;;;;;;;21.35;80.42;99888.09;4999889;23;20154;-58
2022/08/15 03:42:59;;;;;;;17.70;14.30;;;;;;;21.33;80.59;99887.41;4971523;28;20682;-54
2022/08/15 03:45:38;;;;;;;17.52;13.55;;;;;;;21.31;80.98;99882.25;4972952;28;20047;-53
2022/08/15 03:48:08;;;;;;;18.80;13.52;;;;;;;21.31;81.29;99889.41;4966175;28;20063;-52
2022/08/15 03:50:49;;;;;;;18.88;14.45;;;;;;;21.29;81.45;99884.22;4959973;28;20058;-56
2022/08/15 03:53:25;;;;;;;15.50;13.27;;;;;;;21.30;81.37;99887.72;4970367;28;20039;-58
2022/08/15 03:55:59;;;;;;;16.55;13.63;;;;;;;21.28;81.07;99887.91;4970319;28;20059;-56
2022/08/15 03:58:28;;;;;;;17.10;13.68;;;;;;;21.27;81.64;99894.28;4971033;28;20061;-58
2022/08/15 04:01:08;;;;;;;15.32;13.73;;;;;;;21.29;81.88;99892.25;4963986;28;20061;-56
2022/08/15 04:03:43;;;;;;;18.45;13.88;;;;;;;21.28;81.94;99893.25;4954608;28;20054;-56
2022/08/15 04:06:12;;;;;;;15.98;14.27;;;;;;;21.27;81.92;99885.41;4970624;28;20150;-56
2022/08/15 04:08:45;;;;;;;16.75;13.93;;;;;;;21.27;82.22;99893.44;4963846;28;20073;-54
2022/08/15 04:11:32;;;;;;;18.00;13.85;;;;;;;21.27;81.35;99896.13;4952776;28;20058;-55
2022/08/15 04:14:06;;;;;;;21.23;13.55;;;;;;;21.24;82.33;99895.47;4955327;28;20066;-52
2022/08/15 04:16:55;;;;;;;15.00;13.48;;;;;;;21.24;82.79;99891.94;4945701;28;20059;-54
2022/08/15 04:19:32;;;;;;;14.82;12.32;;;;;;;21.23;82.79;99890.28;4959988;28;20526;-55
2022/08/15 04:22:16;;;;;;;17.27;13.85;;;;;;;21.23;82.57;99877.72;4961572;28;20051;-53
2022/08/15 04:25:27;;;;;;;18.73;14.15;;;;;;;21.24;83.35;99883.91;4957805;28;20424;-53
2022/08/15 04:28:13;;;;;;;15.57;13.93;;;;;;;21.26;82.77;99889.94;4957558;28;20055;-55
2022/08/15 04:30:55;;;;;;;17.98;14.55;;;;;;;21.28;83.16;99884.41;4957013;28;20471;-55
2022/08/15 04:33:25;;;;;;;15.63;13.60;;;;;;;21.28;83.36;99884.41;4958831;28;20061;-56
2022/08/15 04:36:14;;;;;;;16.83;13.45;;;;;;;21.31;83.05;99887.59;4958013;28;20063;-58
2022/08/15 04:38:47;;;;;;;17.88;12.85;;;;;;;21.32;82.90;99883.06;4965962;28;20073;-54
2022/08/15 04:41:16;;;;;;;21.60;14.73;;;;;;;21.33;83.28;99880.22;4953477;28;20054;-59
2022/08/15 04:44:04;;;;;;;17.33;14.35;;;;;;;21.35;83.18;99882.72;4951746;28;20419;-58
2022/08/15 04:46:31;;;;;;;16.08;14.38;;;;;;;21.38;82.82;99885.03;4950467;28;20494;-55
2022/08/15 04:48:59;;;;;;;15.18;13.20;;;;;;;21.40;82.92;99886.53;4958248;28;20118;-59
2022/08/15 04:51:27;;;;;;;18.15;13.85;;;;;;;21.43;82.56;99888.00;4959560;28;20055;-56
2022/08/15 04:54:02;;;;;;;18.60;13.73;;;;;;;21.44;82.38;99890.53;4955856;28;20063;-55
2022/08/15 04:56:30;;;;;;;16.65;13.00;;;;;;;21.46;82.89;99887.66;4953523;28;20059;-54
2022/08/15 04:59:17;;;;;;;15.15;13.65;;;;;;;21.50;82.99;99886.28;4974852;28;20172;-54
2022/08/15 05:02:01;;;;;;;23.10;13.27;;;;;;;21.58;81.82;99885.41;4962770;28;20051;-58
2022/08/15 05:04:48;;;;;;;17.48;13.48;;;;;;;21.66;81.43;99886.16;4953213;28;20051;-58
2022/08/15 05:07:17;;;;;;;17.05;14.38;;;;;;;21.71;81.76;99890.97;4959806;28;20066;-59
2022/08/15 05:09:44;;;;;;;16.27;12.85;;;;;;;21.79;81.30;99890.88;4961748;28;20174;-60
2022/08/15 05:12:30;;;;;;;15.73;12.65;;;;;;;21.86;81.00;99885.66;4961816;28;20074;-57
2022/08/15 05:15:01;;;;;;;14.38;12.57;;;;;;;21.92;81.02;99887.59;4953370;28;20794;-57
2022/08/15 05:17:29;;;;;;;17.33;13.43;;;;;;;21.95;81.27;99885.41;4952293;28;20051;-56
2022/08/15 05:20:17;;;;;;;14.80;12.75;;;;;;;21.93;81.41;99890.13;4949416;28;20058;-57
2022/08/15 05:23:02;;;;;;;15.80;13.02;;;;;;;21.94;81.12;99883.72;4942885;28;20520;-57
2022/08/15 05:25:35;;;;;;;18.80;13.27;;;;;;;21.94;81.13;99896.31;4946504;28;20082;-56
2022/08/15 05:28:09;;;;;;;;;;;;;;;21.92;81.33;99895.63;4951651;28;20051;-52
2022/08/15 05:30:58;;;;;;;16.23;11.88;;;;;;;21.94;80.61;99891.78;4944752;28;20390;-55
2022/08/15 05:33:33;;;;;;;16.73;13.68;;;;;;;21.97;80.90;99896.78;4951628;28;20460;-54
2022/08/15 05:36:21;;;;;;;14.73;13.23;;;;;;;22.00;80.96;99888.34;4949096;28;20063;-55
2022/08/15 05:39:12;;;;;;;13.75;12.27;;;;;;;22.08;80.75;99881.25;4948863;28;20531;-59
2022/08/15 05:42:02;;;;;;;17.95;13.23;;;;;;;22.14;80.18;99888.59;4952098;28;20402;-58
2022/08/15 05:45:06;;;;;;;14.73;13.23;;;;;;;22.23;79.86;99893.69;4950606;28;20138;-58
2022/08/15 05:47:39;;;;;;;15.05;13.02;;;;;;;22.36;79.24;99889.53;4944391;28;20062;-54
2022/08/15 05:50:27;;;;;;;17.85;13.50;;;;;;;22.43;78.31;99879.75;4949135;28;20082;-55
2022/08/15 05:53:03;;;;;;;14.50;11.80;;;;;;;22.48;78.07;99880.84;4950754;28;20062;-55
2022/08/15 05:55:43;;;;;;;16.02;12.23;;;;;;;22.54;77.95;99883.81;4948487;28;20047;-57
2022/08/15 05:58:19;;;;;;;12.95;11.75;;;;;;;22.59;77.86;99890.25;4949786;28;20520;-56
2022/08/15 06:01:15;;;;;;;14.07;12.30;;;;;;;22.62;77.90;99889.91;4947527;28;20062;-57
2022/08/15 06:03:49;;;;;;;14.50;13.00;;;;;;;22.60;77.60;99888.41;4949895;28;20130;-55
2022/08/15 06:06:20;;;;;;;13.82;12.43;;;;;;;22.58;77.85;99891.28;4947927;28;20090;-57
2022/08/15 06:08:59;;;;;;;18.67;13.75;;;;;;;22.62;77.71;99894.44;4959277;28;20059;-59
2022/08/15 06:11:43;;;;;;;17.08;13.85;;;;;;;22.67;77.55;99890.16;4955407;28;20555;-59
2022/08/15 06:14:41;;;;;;;17.27;14.18;;;;;;;22.71;77.52;99890.63;4939051;28;20076;-59
2022/08/15 06:17:17;;;;;;;15.05;13.38;;;;;;;22.90;77.38;99878.50;4946001;28;20516;-55
2022/08/15 06:19:52;;;;;;;14.70;13.05;;;;;;;23.05;76.08;99881.97;4947265;28;20077;-54
2022/08/15 06:22:23;;;;;;;15.27;13.70;;;;;;;23.20;75.95;99877.41;4948890;28;20667;-55
2022/08/15 06:25:08;;;;;;;15.80;13.00;;;;;;;23.34;74.96;99886.44;4946700;28;20078;-57
2022/08/15 06:27:55;;;;;;;21.15;14.18;;;;;;;23.42;74.59;99874.75;4949835;28;20059;-58
2022/08/15 06:30:29;;;;;;;16.88;13.93;;;;;;;23.50;74.65;99879.97;5008712;23;20070;-58
2022/08/15 06:33:06;;;;;;;14.55;13.05;;;;;;;23.56;73.85;99875.69;4988086;28;20442;-58
2022/08/15 06:35:44;;;;;;;14.95;13.52;;;;;;;23.70;73.76;99869.44;4999620;28;20413;-61
2022/08/15 06:38:36;;;;;;;15.43;13.77;;;;;;;23.86;73.08;99869.16;5010430;28;20138;-58
2022/08/15 06:41:30;;;;;;;14.73;13.15;;;;;;;23.99;72.21;99876.47;4985665;28;20518;-56
2022/08/15 06:43:58;;;;;;;13.23;11.73;;;;;;;23.97;72.12;99871.31;4971097;28;20053;-58
2022/08/15 06:46:30;;;;;;;14.95;11.77;;;;;;;24.11;71.84;99879.47;4990911;28;20438;-56
2022/08/15 06:49:19;;;;;;;14.63;12.50;;;;;;;24.19;70.98;99880.16;4986571;28;20050;-58
2022/08/15 06:51:50;;;;;;;15.38;12.77;;;;;;;24.28;70.71;99877.31;4970612;28;20043;-61
2022/08/15 06:54:26;;;;;;;14.52;13.02;;;;;;;24.28;70.75;99872.75;4993419;28;20125;-53
2022/08/15 06:57:11;;;;;;;15.10;13.48;;;;;;;24.35;70.24;99870.09;4986840;28;20061;-59
2022/08/15 06:59:59;;;;;;;12.70;11.35;;;;;;;24.47;70.26;99866.69;4991198;28;20455;-59
2022/08/15 07:02:45;;;;;;;12.77;11.57;;;;;;;24.53;69.44;99872.28;4991922;28;20061;-57
2022/08/15 07:05:27;;;;;;;16.58;12.07;;;;;;;24.57;69.47;99863.63;4976703;28;20089;-60
2022/08/15 07:08:19;;;;;;;17.88;12.10;;;;;;;24.69;69.16;99864.72;5002718;28;20552;-60
2022/08/15 07:10:51;;;;;;;12.82;10.98;;;;;;;24.83;68.53;99860.22;4994542;28;20129;-56
2022/08/15 07:13:26;;;;;;;13.75;10.30;;;;;;;24.97;67.77;99861.09;4990057;28;20047;-54
2022/08/15 07:16:18;;;;;;;10.57;9.57;;;;;;;25.02;67.42;99864.00;4975357;28;20093;-59
2022/08/15 07:18:52;;;;;;;9.65;8.65;;;;;;;25.06;66.87;99857.19;4987042;28;20402;-58
2022/08/15 07:21:22;;;;;;;10.05;8.75;;;;;;;25.11;66.52;99852.03;4990761;28;20057;-58
2022/08/15 07:24:10;;;;;;;8.57;7.78;;;;;;;25.27;65.88;99858.09;4990874;28;20046;-58
2022/08/15 07:27:07;;;;;;;11.05;9.48;;;;;;;25.39;65.17;99853.75;4985781;28;20050;-60
2022/08/15 07:29:36;;;;;;;9.32;8.48;;;;;;;25.44;64.83;99857.50;4991821;28;20046;-59
2022/08/15 07:32:25;;;;;;;9.35;8.40;;;;;;;25.53;64.67;99858.09;4991015;28;20090;-59
2022/08/15 07:35:06;;;;;;;9.15;8.35;;;;;;;25.60;64.41;99850.03;4990516;28;20065;-55
2022/08/15 07:37:41;;;;;;;11.82;9.70;;;;;;;25.60;64.04;99858.94;4992340;28;20047;-53
2022/08/15 07:40:19;;;;;;;9.93;8.93;;;;;;;25.74;63.59;99860.59;4988702;28;20061;-61
2022/08/15 07:42:58;;;;;;;9.55;8.57;;;;;;;25.74;63.28;99857.09;4991840;28;20073;-58
2022/08/15 07:45:39;;;;;;;9.68;8.68;;;;;;;25.66;63.19;99854.59;4965950;28;20052;-59
2022/08/15 07:48:24;;;;;;;9.88;8.80;;;;;;;25.77;63.06;99855.88;4981679;28;20050;-53
2022/08/15 07:51:07;;;;;;;10.15;8.68;;;;;;;25.89;63.01;99855.06;4990222;28;20046;-57
2022/08/15 07:54:03;;;;;;;10.75;9.65;;;;;;;26.07;62.59;99858.94;4985299;28;20073;-58
2022/08/15 07:56:33;;;;;;;9.35;8.52;;;;;;;26.18;61.22;99852.94;4989869;28;20533;-59
2022/08/15 07:59:20;;;;;;;11.45;9.65;;;;;;;26.27;60.71;99852.47;4979283;28;20050;-60
2022/08/15 08:02:00;;;;;;;13.27;9.23;;;;;;;26.39;60.33;99854.53;4989955;28;20526;-55
2022/08/15 08:04:34;;;;;;;9.93;8.93;;;;;;;26.53;60.39;99844.56;4983938;28;20065;-60
2022/08/15 08:07:18;;;;;;;11.57;9.35;;;;;;;26.60;60.25;99843.47;4987535;28;20057;-57
2022/08/15 08:11:02;;;;;;;11.82;9.13;;;;;;;26.58;59.53;99845.56;4985576;28;20419;-60
2022/08/15 08:13:41;;;;;;;9.77;8.85;;;;;;;26.67;58.78;99836.19;4929844;29;20052;-55
2022/08/15 08:16:20;;;;;;;9.35;8.40;;;;;;;26.71;59.13;99842.81;4975149;28;20058;-55
2022/08/15 08:19:03;;;;;;;11.63;8.77;;;;;;;26.68;58.45;99837.84;4981386;28;20050;-54
2022/08/15 08:21:39;;;;;;;10.13;8.98;;;;;;;26.72;58.36;99847.16;4965128;28;20046;-58
2022/08/15 08:24:24;;;;;;;9.27;8.15;;;;;;;26.75;58.35;99843.22;4990068;28;20053;-55
2022/08/15 08:27:04;;;;;;;12.07;8.65;;;;;;;26.86;58.22;99837.13;4984261;28;20056;-57
2022/08/15 08:30:08;;;;;;;9.30;8.32;;;;;;;26.88;58.04;99845.00;4983780;28;20537;-57
2022/08/15 08:33:18;;;;;;;10.40;8.43;;;;;;;26.97;57.06;99830.19;4952591;28;20058;-59
2022/08/15 08:36:10;;;;;;;11.07;8.85;;;;;;;26.96;57.00;99828.56;4983884;28;20053;-59
2022/08/15 08:39:22;;;;;;;9.15;8.35;;;;;;;26.98;56.72;99832.72;4985558;28;20059;-56
2022/08/15 08:41:58;;;;;;;9.95;8.95;;;;;;;27.17;56.55;99833.66;4989176;28;20046;-61
2022/08/15 08:44:50;;;;;;;12.80;9.23;;;;;;;27.21;56.47;99832.19;4990978;28;20046;-59
2022/08/15 08:47:43;;;;;;;9.98;8.15;;;;;;;27.35;56.47;99834.78;4980853;28;20865;-57
2022/08/15 08:50:23;;;;;;;10.68;9.57;;;;;;;27.49;56.02;99823.66;4988502;28;20560;-59
2022/08/15 08:53:30;;;;;;;11.82;10.55;;;;;;;27.61;55.78;99831.88;4990461;28;20146;-59
2022/08/15 08:56:28;;;;;;;12.60;10.30;;;;;;;27.77;55.49;99827.81;4989972;28;20038;-60
2022/08/15 08:59:17;;;;;;;11.02;9.90;;;;;;;27.94;54.91;99826.19;4950145;28;20605;-54
2022/08/15 09:01:49;;;;;;;11.68;9.73;;;;;;;28.09;54.32;99827.72;4983049;28;20054;-54
2022/08/15 09:04:19;;;;;;;10.82;9.82;;;;;;;28.17;54.03;99825.53;4978127;28;20046;-56
2022/08/15 09:06:48;;;;;;;10.07;9.07;;;;;;;28.47;53.72;99831.06;4979000;28;20059;-59
2022/08/15 09:09:23;;;;;;;11.68;10.18;;;;;;;28.65;53.23;99823.97;4986686;28;20058;-56
2022/08/15 09:15:01;;;;;;;17.45;11.68;;;;;;;28.34;52.87;99817.66;4983554;28;20666;-59
2022/08/15 09:17:44;;;;;;;10.93;9.75;;;;;;;28.30;53.25;99823.75;4989898;28;20419;-59
2022/08/15 09:20:33;;;;;;;13.02;11.77;;;;;;;28.47;52.82;99816.69;4981570;28;20537;-60
2022/08/15 09:23:12;;;;;;;11.90;10.77;;;;;;;28.79;52.25;99814.63;4990148;28;20622;-56
2022/08/15 09:26:13;;;;;;;13.57;9.65;;;;;;;28.99;51.54;99811.66;4970708;28;20062;-60
2022/08/15 09:29:08;;;;;;;10.55;9.45;;;;;;;28.94;51.19;99803.34;4979212;28;20050;-57
2022/08/15 09:32:00;;;;;;;9.77;8.77;;;;;;;28.93;51.27;99810.66;4983696;28;20562;-57
2022/08/15 09:34:42;;;;;;;13.13;9.63;;;;;;;28.87;51.05;99808.88;4981708;28;20057;-53
2022/08/15 09:37:33;;;;;;;10.80;8.70;;;;;;;28.91;50.40;99809.22;4989142;28;20054;-60
2022/08/15 09:40:29;;;;;;;10.20;9.10;;;;;;;28.89;50.07;99805.94;4974587;28;20051;-58
2022/08/15 09:43:31;;;;;;;13.77;9.00;;;;;;;29.02;49.88;99798.47;4985831;28;20065;-55
2022/08/15 09:46:17;;;;;;;10.23;8.75;;;;;;;29.30;49.18;99797.00;4987935;28;20050;-59
2022/08/15 09:49:40;;;;;;;10.75;9.60;;;;;;;29.48;47.87;99793.38;4980382;28;20058;-58
2022/08/15 09:52:37;;;;;;;10.50;9.40;;;;;;;29.51;47.30;99792.91;4973381;28;20048;-58
2022/08/15 09:55:27;;;;;;;9.68;8.77;;;;;;;29.44;47.80;99795.72;4985285;28;20050;-59
2022/08/15 09:58:22;;;;;;;11.93;8.82;;;;;;;29.55;47.53;99799.56;4987984;28;20467;-60
2022/08/15 10:01:09;;;;;;;10.10;8.75;;;;;;;29.57;47.15;99786.56;4976486;28;20438;-58
2022/08/15 10:03:45;;;;;;;9.80;8.85;;;;;;;29.70;47.38;99785.50;4982236;28;20523;-59
2022/08/15 10:06:22;;;;;;;9.93;9.00;;;;;;;29.98;47.17;99784.78;4987085;28;20073;-59
2022/08/15 10:09:32;;;;;;;9.05;8.15;;;;;;;30.08;46.91;99782.31;4987553;28;20051;-57
2022/08/15 10:12:06;;;;;;;11.02;9.30;;;;;;;30.01;46.03;99782.44;4987640;28;20137;-57
2022/08/15 10:14:39;;;;;;;8.90;8.00;;;;;;;30.00;46.44;99780.78;4988784;28;20065;-62
2022/08/15 10:17:33;;;;;;;12.27;8.40;;;;;;;29.92;46.59;99772.19;4969997;28;20058;-60
2022/08/15 10:20:15;;;;;;;9.05;8.13;;;;;;;29.87;46.65;99763.94;4977925;28;20070;-60
2022/08/15 10:22:56;;;;;;;9.38;8.10;;;;;;;29.89;46.83;99775.34;4989157;28;20046;-60
2022/08/15 10:25:36;;;;;;;9.70;7.82;;;;;;;30.05;45.99;99755.66;4978023;28;20053;-60
2022/08/15 10:28:12;;;;;;;10.82;8.20;;;;;;;30.23;45.38;99760.94;4979314;28;20425;-60
2022/08/15 10:31:01;;;;;;;8.77;7.85;;;;;;;30.24;45.09;99765.28;4990920;28;20062;-59
2022/08/15 10:33:35;;;;;;;8.95;8.15;;;;;;;30.39;43.82;99769.38;4991808;28;20523;-57
2022/08/15 10:36:13;;;;;;;8.43;7.55;;;;;;;30.47;43.91;99769.00;4990751;28;20043;-56
2022/08/15 10:39:09;;;;;;;11.45;8.50;;;;;;;30.43;43.44;99763.22;4987859;28;20061;-60
2022/08/15 10:42:09;;;;;;;8.50;7.53;;;;;;;30.80;43.50;99756.59;4979193;28;20391;-56
2022/08/15 10:45:16;;;;;;;10.23;9.00;;;;;;;30.94;41.99;99749.81;4985658;28;20042;-57
2022/08/15 10:48:07;;;;;;;8.45;7.70;;;;;;;30.95;42.37;99754.19;4985449;28;20058;-57
2022/08/15 10:51:08;;;;;;;10.23;8.13;;;;;;;31.06;41.94;99752.44;4986055;28;20393;-59
2022/08/15 10:53:45;;;;;;;9.85;8.60;;;;;;;31.08;42.05;99758.47;4992738;28;20408;-60
2022/08/15 10:56:22;;;;;;;9.15;8.25;;;;;;;31.20;42.17;99743.72;4977890;28;20062;-60
2022/08/15 10:59:16;;;;;;;11.18;7.55;;;;;;;31.54;41.44;99751.91;4991233;28;20054;-58
2022/08/15 11:01:44;;;;;;;9.63;8.60;;;;;;;31.59;41.07;99745.72;4974187;28;20054;-59
2022/08/15 11:04:25;;;;;;;9.82;8.07;;;;;;;31.50;41.49;99748.84;4980358;28;20054;-57
2022/08/15 11:07:34;;;;;;;10.43;9.32;;;;;;;31.79;40.68;99751.44;4976795;28;20049;-53
2022/08/15 11:10:14;;;;;;;8.45;7.75;;;;;;;31.89;39.96;99750.81;4988636;28;20897;-57
2022/08/15 11:12:48;;;;;;;;;;;;;;;31.78;39.70;99742.44;4993302;28;20046;-59
2022/08/15 11:15:18;;;;;;;9.18;8.27;;;;;;;31.87;39.78;99742.03;4970502;28;19922;-58
2022/08/15 11:18:08;;;;;;;9.13;8.25;;;;;;;31.83;39.50;99744.44;4986050;28;20043;-60
2022/08/15 11:20:52;;;;;;;8.20;7.50;;;;;;;31.79;39.61;99754.16;4990503;28;20060;-60
2022/08/15 11:23:31;;;;;;;10.02;7.82;;;;;;;32.07;39.36;99736.06;4991367;28;20061;-60
2022/08/15 11:26:00;;;;;;;8.93;8.00;;;;;;;32.61;38.68;99734.25;4985516;28;20046;-58
2022/08/15 11:28:30;;;;;;;8.32;7.22;;;;;;;33.02;37.87;99734.66;4991254;28;20411;-56
2022/08/15 11:31:19;;;;;;;8.55;7.70;;;;;;;32.91;37.44;99730.19;4990129;28;20054;-55
2022/08/15 11:33:49;;;;;;;10.35;7.70;;;;;;;32.91;37.53;99730.19;4991568;28;20050;-59
2022/08/15 11:36:19;;;;;;;9.48;8.07;;;;;;;32.85;37.53;99728.47;4989545;28;20392;-59
2022/08/15 11:38:50;;;;;;;9.18;8.27;;;;;;;32.78;37.47;99725.94;4991436;28;20054;-59
2022/08/15 11:41:42;;;;;;;8.27;7.57;;;;;;;32.98;37.53;99728.09;4973977;28;20130;-59
2022/08/15 11:44:29;;;;;;;9.43;7.82;;;;;;;33.27;37.21;99721.22;4991361;28;20050;-58
2022/08/15 11:46:57;;;;;;;11.93;8.75;;;;;;;33.36;36.42;99712.56;4983498;28;20051;-58
2022/08/15 11:49:33;;;;;;;8.18;7.35;;;;;;;33.27;36.37;99713.03;4990241;28;20511;-60
2022/08/15 11:52:05;;;;;;;10.55;9.30;;;;;;;33.13;36.88;99714.56;4986359;28;20377;-60
2022/08/15 11:55:19;;;;;;;11.07;7.65;;;;;;;33.01;36.92;99712.03;4986447;28;20054;-57
2022/08/15 11:57:58;;;;;;;10.23;7.50;;;;;;;33.28;36.59;99708.44;4966318;28;20446;-58
2022/08/15 12:00:48;;;;;;;7.50;6.85;;;;;;;33.70;35.63;99711.16;4989652;28;20046;-59
2022/08/15 12:03:25;;;;;;;8.55;7.75;;;;;;;34.14;35.04;99707.31;4991251;28;20054;-60
2022/08/15 12:06:12;;;;;;;8.60;7.68;;;;;;;34.54;34.38;99706.63;4988397;28;20054;-60
2022/08/15 12:09:07;;;;;;;8.40;7.60;;;;;;;35.00;33.32;99712.16;4991496;28;20053;-54
2022/08/15 12:11:43;;;;;;;8.27;7.47;;;;;;;34.84;33.04;99713.19;4989205;28;20077;-57
2022/08/15 12:14:24;;;;;;;8.60;7.70;;;;;;;34.62;33.99;99708.78;4978756;28;20061;-58
2022/08/15 12:16:59;;;;;;;9.85;7.50;;;;;;;34.86;33.78;99703.63;4972111;28;20153;-60
2022/08/15 12:19:36;;;;;;;9.27;8.23;;;;;;;35.11;32.35;99705.56;4990808;28;20048;-60
2022/08/15 12:22:31;;;;;;;9.30;8.50;;;;;;;35.26;33.09;99707.50;4991212;28;20050;-60
2022/08/15 12:25:18;;;;;;;9.38;7.70;;;;;;;35.64;32.03;99699.75;4986591;28;20051;-59
2022/08/15 12:28:05;;;;;;;8.95;8.05;;;;;;;35.95;31.99;99715.03;4990998;28;20081;-57
2022/08/15 12:30:56;;;;;;;8.48;7.78;;;;;;;35.23;31.57;99706.09;5011410;23;20049;-79